Time;durP1;ratioP1;P1;durP2;ratioP2;P2;SDS_P1;SDS_P2;PMS_P1;PMS_P2;Temp;Humidity;BMP_temperature;BMP_pressure;BME280_temperature;BME280_humidity;BME280_pressure;Samples;Min_cycle;Max_cycle;Signal;HPM_P1;HPM_P2
2022/07/03 00:01:14;;;;;;;0.00;0.00;;;;;;;21.68;67.63;101094.75;5060094;28;20035;-62
2022/07/03 00:03:45;;;;;;;0.00;0.00;;;;;;;21.63;66.94;101090.50;5048855;28;20395;-62
2022/07/03 00:06:15;;;;;;;0.00;0.00;;;;;;;21.70;66.46;101095.09;5060283;28;20028;-62
2022/07/03 00:08:50;;;;;;;0.05;0.05;;;;;;;21.70;66.81;101082.13;5066823;28;20028;-62
2022/07/03 00:11:18;;;;;;;0.10;0.10;;;;;;;21.73;66.93;101080.53;5062143;28;20459;-62
2022/07/03 00:13:44;;;;;;;0.10;0.10;;;;;;;21.79;65.98;101078.84;5049509;28;20036;-62
2022/07/03 00:16:10;;;;;;;0.00;0.00;;;;;;;21.77;65.25;101078.50;5062566;28;20033;-62
2022/07/03 00:18:38;;;;;;;0.00;0.00;;;;;;;21.71;65.00;101080.19;5065331;28;20028;-62
2022/07/03 00:21:09;;;;;;;0.00;0.00;;;;;;;21.63;66.41;101081.50;5066265;28;20045;-62
2022/07/03 00:24:00;;;;;;;0.00;0.00;;;;;;;21.68;66.51;101070.81;5067704;28;20028;-62
2022/07/03 00:26:34;;;;;;;0.20;0.20;;;;;;;21.55;67.23;101064.41;5034158;28;20496;-62
2022/07/03 00:29:08;;;;;;;0.08;0.08;;;;;;;21.38;68.17;101071.75;5020490;28;20063;-62
2022/07/03 00:31:34;;;;;;;0.00;0.00;;;;;;;21.43;67.50;101074.00;5029471;28;20412;-62
2022/07/03 00:34:08;;;;;;;0.00;0.00;;;;;;;21.54;67.87;101063.63;5039544;28;20045;-62
2022/07/03 00:36:36;;;;;;;0.10;0.10;;;;;;;21.60;66.54;101061.19;5035763;28;20515;-62
2022/07/03 00:39:10;;;;;;;0.10;0.10;;;;;;;21.71;64.53;101063.72;5028531;28;20470;-63
2022/07/03 00:41:38;;;;;;;0.00;0.00;;;;;;;21.72;65.10;101059.81;5033066;28;20477;-62
2022/07/03 00:44:06;;;;;;;0.00;0.00;;;;;;;21.75;66.37;101058.94;5044529;28;20048;-62
2022/07/03 00:46:38;;;;;;;0.10;0.10;;;;;;;21.71;68.21;101060.97;5036884;28;20380;-62
2022/07/03 00:49:08;;;;;;;0.10;0.10;;;;;;;21.70;66.68;101051.22;5038106;28;21131;-62
2022/07/03 00:51:34;;;;;;;0.40;0.40;;;;;;;21.74;67.03;101055.44;5040961;28;20418;-62
2022/07/03 00:54:03;;;;;;;0.80;0.55;;;;;;;21.73;64.82;101042.91;5043032;28;20041;-62
2022/07/03 00:56:31;;;;;;;0.00;0.00;;;;;;;21.75;62.91;101040.53;5038294;28;20099;-62
2022/07/03 00:59:01;;;;;;;0.10;0.10;;;;;;;21.82;62.88;101045.13;5033762;28;20107;-62
2022/07/03 01:01:41;;;;;;;0.10;0.10;;;;;;;21.88;63.36;101052.44;5038693;28;20530;-62
2022/07/03 01:04:33;;;;;;;0.10;0.10;;;;;;;21.72;65.04;101051.56;5059451;28;20056;-62
2022/07/03 01:07:12;;;;;;;;;;;;;;;21.67;66.17;101046.56;5068510;28;20028;-62
2022/07/03 01:09:58;;;;;;;0.20;0.15;;;;;;;21.68;64.73;101035.16;5066131;28;20005;-62
2022/07/03 01:12:50;;;;;;;0.00;0.00;;;;;;;21.63;63.65;101038.41;5068516;28;20081;-62
2022/07/03 01:15:35;;;;;;;0.10;0.00;;;;;;;21.48;62.91;101026.16;5052302;28;20028;-62
2022/07/03 01:18:14;;;;;;;0.32;0.08;;;;;;;21.60;62.34;101024.78;5052644;28;20040;-62
2022/07/03 01:20:44;;;;;;;0.00;0.00;;;;;;;21.67;61.37;101024.63;5066461;28;20468;-62
2022/07/03 01:23:33;;;;;;;0.00;0.00;;;;;;;21.68;62.53;101028.94;5061511;28;20032;-62
2022/07/03 01:26:04;;;;;;;0.30;0.10;;;;;;;21.62;60.11;101017.69;5064252;28;20029;-62
2022/07/03 01:28:32;;;;;;;0.10;0.10;;;;;;;21.71;60.35;101022.59;5050350;28;20029;-62
2022/07/03 01:31:08;;;;;;;0.25;0.25;;;;;;;21.77;62.07;101012.69;5070352;28;20039;-62
2022/07/03 01:33:35;;;;;;;0.00;0.00;;;;;;;21.62;59.81;101006.72;5069701;28;20047;-62
2022/07/03 01:36:08;;;;;;;0.30;0.25;;;;;;;21.71;60.62;101008.88;5061188;28;20036;-62
2022/07/03 01:38:40;;;;;;;0.10;0.10;;;;;;;21.82;59.92;101007.50;5066650;28;20337;-62
2022/07/03 01:41:12;;;;;;;0.00;0.00;;;;;;;21.81;60.46;101005.19;5069978;28;20024;-62
2022/07/03 01:44:01;;;;;;;0.00;0.00;;;;;;;21.75;61.74;101004.88;5066241;28;20071;-62
2022/07/03 01:46:31;;;;;;;2.72;0.90;;;;;;;21.81;60.89;100999.69;5058861;28;20041;-62
2022/07/03 01:49:10;;;;;;;0.10;0.10;;;;;;;21.82;62.33;100996.53;5069220;28;20036;-62
2022/07/03 01:51:41;;;;;;;0.10;0.00;;;;;;;21.79;62.20;100991.88;5070784;28;20036;-62
2022/07/03 01:54:10;;;;;;;0.10;0.10;;;;;;;21.79;62.25;100988.34;5068840;28;20130;-62
2022/07/03 01:56:35;;;;;;;0.00;0.00;;;;;;;21.81;60.16;100986.00;5068659;28;20027;-62
2022/07/03 01:59:09;;;;;;;0.00;0.00;;;;;;;21.79;61.31;100985.59;5064987;28;20777;-62
2022/07/03 02:01:51;;;;;;;0.05;0.05;;;;;;;21.81;60.34;100977.75;5064127;28;20063;-62
2022/07/03 02:04:28;;;;;;;0.00;0.00;;;;;;;21.83;60.75;100983.59;5066492;28;20035;-62
2022/07/03 02:07:04;;;;;;;0.00;0.00;;;;;;;21.81;60.76;100972.28;5069079;28;20093;-62
2022/07/03 02:10:07;;;;;;;0.00;0.00;;;;;;;21.76;60.61;100970.75;5066428;28;20044;-62
2022/07/03 02:12:47;;;;;;;0.10;0.00;;;;;;;21.74;60.74;100962.19;5057883;28;20040;-62
2022/07/03 02:15:20;;;;;;;0.00;0.00;;;;;;;21.75;59.95;100973.94;5051630;28;20040;-62
2022/07/03 02:17:51;;;;;;;0.20;0.03;;;;;;;21.75;60.57;100962.97;5050909;28;20024;-62
2022/07/03 02:20:18;;;;;;;0.00;0.00;;;;;;;21.71;60.48;100971.28;5061325;28;20051;-62
2022/07/03 02:22:56;;;;;;;0.03;0.00;;;;;;;21.69;60.93;100965.44;5064061;28;20533;-62
2022/07/03 02:25:43;;;;;;;1.17;0.57;;;;;;;21.63;61.49;100963.59;5056195;28;20327;-62
2022/07/03 02:28:50;;;;;;;0.10;0.10;;;;;;;21.56;62.38;100973.50;5053433;28;20252;-62
2022/07/03 02:31:18;;;;;;;0.00;0.00;;;;;;;21.55;62.76;100966.50;5055424;28;20044;-62
2022/07/03 02:33:47;;;;;;;0.30;0.30;;;;;;;21.53;61.96;100954.38;5064933;28;20319;-62
2022/07/03 02:36:19;;;;;;;0.00;0.00;;;;;;;21.51;62.04;100957.56;5063137;28;20051;-62
2022/07/03 02:38:53;;;;;;;0.00;0.00;;;;;;;21.45;62.97;100966.69;5059699;28;20032;-62
2022/07/03 02:41:37;;;;;;;0.22;0.22;;;;;;;21.45;63.34;100958.47;5064173;28;20024;-62
2022/07/03 02:44:27;;;;;;;0.08;0.08;;;;;;;21.49;62.38;100967.38;5063034;28;20031;-62
2022/07/03 02:47:27;;;;;;;0.00;0.00;;;;;;;21.45;62.70;100961.97;5065516;28;20040;-62
2022/07/03 02:50:03;;;;;;;0.10;0.10;;;;;;;21.41;63.72;100964.00;5022856;28;20051;-62
2022/07/03 02:52:38;;;;;;;0.28;0.28;;;;;;;21.39;63.25;100963.66;5065954;28;20025;-62
2022/07/03 02:55:43;;;;;;;0.00;0.00;;;;;;;21.20;61.99;100961.66;5061803;28;20074;-62
2022/07/03 02:58:30;;;;;;;0.30;0.30;;;;;;;21.23;63.15;100947.16;5051686;28;20403;-62
2022/07/03 03:01:03;;;;;;;0.20;0.20;;;;;;;21.28;64.87;100945.88;5061008;28;20428;-62
2022/07/03 03:03:32;;;;;;;0.20;0.20;;;;;;;21.29;64.05;100948.19;5064674;28;20364;-62
2022/07/03 03:06:10;;;;;;;0.00;0.00;;;;;;;21.24;64.31;100950.63;5061546;28;20063;-62
2022/07/03 03:08:42;;;;;;;;;;;;;;;21.07;65.54;100951.75;5065822;28;20048;-62
2022/07/03 03:11:26;;;;;;;0.43;0.43;;;;;;;21.06;66.24;100950.97;5065793;28;19923;-62
2022/07/03 03:13:59;;;;;;;0.10;0.10;;;;;;;21.10;66.34;100950.91;5068393;28;20447;-62
2022/07/03 03:16:26;;;;;;;0.00;0.00;;;;;;;21.08;66.86;100951.31;5051876;28;20037;-62
2022/07/03 03:18:52;;;;;;;0.20;0.20;;;;;;;21.05;66.04;100945.91;5068283;28;20036;-62
2022/07/03 03:21:19;;;;;;;0.00;0.00;;;;;;;21.10;65.98;100946.19;5063995;28;20025;-62
2022/07/03 03:23:51;;;;;;;0.00;0.00;;;;;;;21.04;67.01;100944.38;5067728;28;20069;-62
2022/07/03 03:26:31;;;;;;;1.45;0.70;;;;;;;21.01;67.78;100948.72;5067931;28;20055;-62
2022/07/03 03:29:00;;;;;;;0.00;0.00;;;;;;;20.94;66.10;100940.59;5065865;28;20028;-62
2022/07/03 03:31:26;;;;;;;0.10;0.10;;;;;;;20.96;66.54;100942.91;5063819;28;20035;-62
2022/07/03 03:33:55;;;;;;;0.05;0.05;;;;;;;20.93;68.69;100941.78;5065046;28;20391;-62
2022/07/03 03:36:24;;;;;;;0.08;0.08;;;;;;;20.89;67.68;100940.28;5059615;28;20041;-62
2022/07/03 03:38:56;;;;;;;0.00;0.00;;;;;;;20.85;67.21;100934.88;5048743;28;20036;-62
2022/07/03 03:41:30;;;;;;;0.10;0.10;;;;;;;20.87;65.72;100935.22;5063769;28;20037;-62
2022/07/03 03:43:58;;;;;;;0.03;0.03;;;;;;;20.80;67.24;100935.34;5066577;28;20033;-62
2022/07/03 03:46:29;;;;;;;1.17;0.35;;;;;;;20.87;66.73;100932.50;5065828;28;20086;-62
2022/07/03 03:48:56;;;;;;;0.13;0.13;;;;;;;20.91;67.07;100941.41;5065527;28;20032;-62
2022/07/03 03:51:25;;;;;;;0.10;0.10;;;;;;;20.92;66.10;100940.25;5065899;28;20036;-62
2022/07/03 03:54:03;;;;;;;0.00;0.00;;;;;;;20.90;67.77;100925.41;5066661;28;20477;-62
2022/07/03 03:56:34;;;;;;;0.10;0.10;;;;;;;20.84;67.99;100933.34;5064225;28;20368;-62
2022/07/03 03:59:02;;;;;;;0.00;0.00;;;;;;;20.89;68.48;100924.63;5037506;28;20032;-62
2022/07/03 04:01:30;;;;;;;0.47;0.20;;;;;;;20.78;68.84;100926.00;5058216;28;20025;-62
2022/07/03 04:03:59;;;;;;;0.00;0.00;;;;;;;20.80;68.95;100927.16;5056625;28;20093;-62
2022/07/03 04:06:30;;;;;;;0.00;0.00;;;;;;;20.84;68.41;100919.66;5065050;28;20052;-62
2022/07/03 04:09:01;;;;;;;0.10;0.10;;;;;;;20.84;69.88;100927.06;5054624;28;20120;-62
2022/07/03 04:11:33;;;;;;;0.00;0.00;;;;;;;20.76;66.63;100920.19;5049961;28;20124;-62
2022/07/03 04:14:32;;;;;;;0.00;0.00;;;;;;;20.68;64.99;100930.47;5053008;28;20525;-62
2022/07/03 04:16:58;;;;;;;0.03;0.03;;;;;;;20.71;69.12;100926.13;5063247;28;20078;-62
2022/07/03 04:19:26;;;;;;;0.00;0.00;;;;;;;20.80;69.20;100916.19;5070128;28;20028;-62
2022/07/03 04:22:00;;;;;;;0.17;0.17;;;;;;;20.77;69.32;100916.25;5069747;28;20506;-62
2022/07/03 04:24:26;;;;;;;0.00;0.00;;;;;;;20.70;71.25;100906.19;5066965;28;20569;-62
2022/07/03 04:27:00;;;;;;;0.20;0.20;;;;;;;20.55;72.22;100910.34;5070571;28;20056;-62
2022/07/03 04:29:29;;;;;;;0.10;0.10;;;;;;;20.47;73.17;100915.19;5051957;28;20040;-62
2022/07/03 04:32:00;;;;;;;0.10;0.10;;;;;;;20.55;72.18;100915.84;5071368;28;20040;-62
2022/07/03 04:34:31;;;;;;;0.40;0.40;;;;;;;20.57;72.23;100913.47;5048043;28;20056;-62
2022/07/03 04:36:59;;;;;;;0.20;0.15;;;;;;;20.44;74.24;100917.97;5068179;28;20115;-62
2022/07/03 04:39:28;;;;;;;0.03;0.03;;;;;;;20.47;73.91;100917.91;5070129;28;20416;-62
2022/07/03 04:41:58;;;;;;;0.10;0.10;;;;;;;20.56;73.18;100920.88;5052548;28;20054;-62
2022/07/03 04:44:24;;;;;;;0.00;0.00;;;;;;;20.66;72.12;100917.22;5054955;28;20037;-62
2022/07/03 04:46:49;;;;;;;0.00;0.00;;;;;;;20.73;70.30;100910.81;5069899;28;20044;-62
2022/07/03 04:49:18;;;;;;;0.10;0.10;;;;;;;20.79;69.47;100914.63;5069410;28;20089;-62
2022/07/03 04:51:55;;;;;;;0.10;0.10;;;;;;;20.75;69.38;100924.13;5070524;28;20029;-62
2022/07/03 04:54:24;;;;;;;0.08;0.08;;;;;;;20.84;70.89;100919.66;5056501;28;20040;-62
2022/07/03 04:56:55;;;;;;;0.20;0.20;;;;;;;20.85;68.49;100915.69;5065264;28;20060;-62
2022/07/03 04:59:29;;;;;;;0.10;0.10;;;;;;;20.90;68.72;100914.47;5069906;28;20040;-62
2022/07/03 05:01:55;;;;;;;0.28;0.10;;;;;;;20.92;66.94;100910.13;5049175;28;20041;-62
2022/07/03 05:04:29;;;;;;;0.10;0.10;;;;;;;21.06;66.95;100912.59;5050623;28;20042;-62
2022/07/03 05:06:57;;;;;;;0.05;0.05;;;;;;;21.23;65.13;100911.53;5070265;28;20036;-62
2022/07/03 05:09:26;;;;;;;1.10;0.73;;;;;;;21.16;66.90;100916.34;5070491;28;20016;-62
2022/07/03 05:11:52;;;;;;;0.03;0.03;;;;;;;21.10;65.40;100916.06;5068990;28;20043;-62
2022/07/03 05:14:18;;;;;;;0.00;0.00;;;;;;;21.21;64.57;100915.88;5070494;28;20449;-62
2022/07/03 05:16:46;;;;;;;0.00;0.00;;;;;;;21.63;63.55;100914.25;5070178;28;20040;-63
2022/07/03 05:19:12;;;;;;;0.00;0.00;;;;;;;22.43;63.39;100909.69;5054038;28;20398;-62
2022/07/03 05:21:44;;;;;;;0.47;0.47;;;;;;;23.27;59.73;100915.00;5064876;28;20051;-62
2022/07/03 05:24:10;;;;;;;0.08;0.08;;;;;;;23.90;55.76;100914.41;5067842;28;20257;-62
2022/07/03 05:26:36;;;;;;;0.00;0.00;;;;;;;24.39;54.45;100912.84;5063597;28;20037;-62
2022/07/03 05:29:02;;;;;;;0.10;0.10;;;;;;;24.71;52.27;100911.81;5065227;28;20028;-62
2022/07/03 05:31:30;;;;;;;0.00;0.00;;;;;;;23.87;56.00;100912.50;5067480;28;20040;-62
2022/07/03 05:33:58;;;;;;;0.20;0.20;;;;;;;22.86;57.40;100912.19;5051902;28;20029;-62
2022/07/03 05:36:36;;;;;;;0.20;0.20;;;;;;;23.59;59.76;100916.88;5066540;28;20029;-62
2022/07/03 05:41:51;;;;;;;0.10;0.10;;;;;;;24.22;53.98;100919.72;5067529;28;20068;-62
2022/07/03 05:44:16;;;;;;;0.00;0.00;;;;;;;24.56;53.54;100943.81;5068802;28;20067;-62
2022/07/03 05:46:44;;;;;;;0.13;0.13;;;;;;;25.06;52.71;100949.22;5066263;28;20475;-63
2022/07/03 05:49:13;;;;;;;0.40;0.40;;;;;;;25.27;50.98;100925.66;5053731;28;20032;-62
2022/07/03 05:51:41;;;;;;;0.10;0.10;;;;;;;25.75;51.90;100949.91;5067814;28;20032;-61
2022/07/03 05:54:10;;;;;;;0.08;0.08;;;;;;;25.95;51.65;100953.09;5066990;28;20032;-62
2022/07/03 05:56:36;;;;;;;0.10;0.10;;;;;;;26.22;49.80;100950.50;5058769;28;20459;-62
2022/07/03 05:59:01;;;;;;;0.05;0.05;;;;;;;26.37;51.52;100945.94;5063808;28;20395;-62
2022/07/03 06:01:27;;;;;;;0.00;0.00;;;;;;;26.03;50.27;100951.59;5068252;28;20107;-62
2022/07/03 06:03:53;;;;;;;0.00;0.00;;;;;;;25.76;49.20;100945.94;5065624;28;20035;-61
2022/07/03 06:06:22;;;;;;;0.15;0.10;;;;;;;25.97;49.94;100950.66;5057413;28;20115;-62
2022/07/03 06:08:51;;;;;;;0.13;0.13;;;;;;;25.20;49.95;100945.22;5056966;28;20273;-62
2022/07/03 06:11:16;;;;;;;0.20;0.15;;;;;;;24.91;50.81;100939.91;5061419;28;20033;-61
2022/07/03 06:13:43;;;;;;;0.00;0.00;;;;;;;24.31;51.88;100941.88;5064929;28;20533;-62
2022/07/03 06:16:09;;;;;;;0.30;0.10;;;;;;;24.54;53.14;100944.25;5066963;28;20064;-62
2022/07/03 06:18:38;;;;;;;0.00;0.00;;;;;;;24.39;52.64;100934.91;5062405;28;20043;-61
2022/07/03 06:21:06;;;;;;;0.17;0.17;;;;;;;23.96;54.17;100931.91;5047751;28;20495;-61
2022/07/03 06:23:32;;;;;;;0.15;0.15;;;;;;;24.30;54.73;100937.56;5064063;28;20043;-62
2022/07/03 06:25:59;;;;;;;0.00;0.00;;;;;;;24.98;54.09;100934.16;5061328;28;20016;-62
2022/07/03 06:28:25;;;;;;;0.35;0.20;;;;;;;25.20;52.56;100939.69;5051641;28;20499;-61
2022/07/03 06:30:51;;;;;;;0.03;0.03;;;;;;;25.31;53.32;100945.59;5059813;28;20044;-62
2022/07/03 06:33:37;;;;;;;0.00;0.00;;;;;;;25.10;51.20;100943.59;5055584;28;20525;-61
2022/07/03 06:36:03;;;;;;;0.10;0.10;;;;;;;23.96;52.89;100931.91;4989594;28;20556;-62
2022/07/03 06:38:31;;;;;;;0.10;0.10;;;;;;;24.78;53.72;100941.91;4997344;28;20048;-61
2022/07/03 06:41:00;;;;;;;0.00;0.00;;;;;;;24.95;54.78;100935.06;4996832;28;20540;-61
2022/07/03 06:43:29;;;;;;;2.40;0.68;;;;;;;25.61;53.46;100934.66;4984821;28;20038;-62
2022/07/03 06:45:55;;;;;;;0.00;0.00;;;;;;;26.11;52.99;100939.09;4998604;28;20036;-61
2022/07/03 06:48:27;;;;;;;0.20;0.20;;;;;;;26.39;53.14;100931.66;4998402;28;20493;-61
2022/07/03 06:50:56;;;;;;;1.20;1.02;;;;;;;26.36;52.37;100941.66;4994845;28;20052;-62
2022/07/03 06:53:27;;;;;;;0.00;0.00;;;;;;;26.63;51.11;100929.88;4992437;28;20668;-62
2022/07/03 06:56:04;;;;;;;0.13;0.13;;;;;;;26.89;50.35;100936.69;4997830;28;20087;-62
2022/07/03 06:58:33;;;;;;;0.10;0.05;;;;;;;26.90;50.62;100940.22;4999555;28;20401;-62
2022/07/03 07:01:04;;;;;;;0.38;0.22;;;;;;;26.08;50.66;100930.94;4980410;28;20051;-62
2022/07/03 07:03:35;;;;;;;0.47;0.08;;;;;;;26.55;51.07;100923.88;4994618;28;20417;-62
2022/07/03 07:06:01;;;;;;;0.10;0.10;;;;;;;25.67;51.00;100927.31;4993769;28;20073;-61
2022/07/03 07:08:30;;;;;;;0.00;0.00;;;;;;;26.25;53.17;100924.72;5001162;28;20919;-62
2022/07/03 07:10:58;;;;;;;0.17;0.17;;;;;;;26.75;51.16;100926.25;4998412;28;20512;-63
2022/07/03 07:13:24;;;;;;;0.30;0.30;;;;;;;27.10;50.20;100937.81;5035203;28;20121;-62
2022/07/03 07:15:50;;;;;;;0.00;0.00;;;;;;;27.29;50.23;100936.56;5062751;28;20036;-62
2022/07/03 07:18:16;;;;;;;0.57;0.20;;;;;;;27.47;50.52;100942.09;5057107;28;20039;-62
2022/07/03 07:20:42;;;;;;;0.00;0.00;;;;;;;27.67;49.88;100942.38;5060470;28;20482;-62
2022/07/03 07:23:11;;;;;;;0.10;0.10;;;;;;;27.90;47.87;100936.16;5059901;28;20031;-62
2022/07/03 07:25:36;;;;;;;0.20;0.15;;;;;;;27.94;49.18;100947.06;5063778;28;20552;-62
2022/07/03 07:28:05;;;;;;;0.10;0.10;;;;;;;27.68;48.76;100941.13;5060204;28;20047;-63
2022/07/03 07:30:30;;;;;;;0.05;0.05;;;;;;;27.78;49.47;100939.88;5064169;28;20020;-64
2022/07/03 07:32:59;;;;;;;0.15;0.10;;;;;;;28.02;49.85;100943.53;5062258;28;20387;-63
2022/07/03 07:35:25;;;;;;;0.28;0.28;;;;;;;28.24;49.11;100943.28;5047725;28;20518;-63
2022/07/03 07:37:53;;;;;;;0.10;0.10;;;;;;;28.04;48.72;100941.06;5069009;28;20036;-63
2022/07/03 07:40:26;;;;;;;0.08;0.08;;;;;;;28.29;48.90;100946.19;5059456;28;20053;-63
2022/07/03 07:43:04;;;;;;;0.00;0.00;;;;;;;28.59;48.17;100946.38;5062364;28;20028;-63
2022/07/03 07:45:32;;;;;;;0.00;0.00;;;;;;;28.53;48.53;100949.72;5070629;28;20028;-63
2022/07/03 07:47:58;;;;;;;0.00;0.00;;;;;;;28.68;48.15;100949.84;5064148;28;20045;-63
2022/07/03 07:50:29;;;;;;;0.85;0.45;;;;;;;28.83;46.93;100936.00;5067532;28;20028;-63
2022/07/03 07:53:01;;;;;;;0.00;0.00;;;;;;;28.92;47.34;100947.81;5064658;28;20182;-63
2022/07/03 07:55:29;;;;;;;0.05;0.05;;;;;;;28.99;47.02;100952.25;5066818;28;20515;-63
2022/07/03 07:57:54;;;;;;;0.17;0.17;;;;;;;28.97;47.32;100940.84;5053665;28;20052;-63
2022/07/03 08:00:22;;;;;;;0.30;0.30;;;;;;;29.04;47.37;100943.25;5043542;28;20224;-63
2022/07/03 08:05:40;;;;;;;1.23;0.57;;;;;;;29.25;47.46;100951.28;5073302;28;20029;-63
2022/07/03 08:08:15;;;;;;;0.10;0.08;;;;;;;29.32;46.40;100939.81;5071221;28;20514;-63
2022/07/03 08:10:43;;;;;;;0.00;0.00;;;;;;;29.28;47.71;100942.00;5071769;28;20507;-63
2022/07/03 08:13:10;;;;;;;0.10;0.00;;;;;;;29.39;47.73;100947.75;5064851;28;20040;-63
2022/07/03 08:15:36;;;;;;;0.10;0.10;;;;;;;29.52;47.90;100953.03;5064665;28;20025;-63
2022/07/03 08:18:02;;;;;;;0.00;0.00;;;;;;;29.71;46.53;100956.44;5052611;28;20494;-63
2022/07/03 08:20:29;;;;;;;0.10;0.10;;;;;;;28.90;46.77;100947.50;5072426;28;20025;-63
2022/07/03 08:22:55;;;;;;;0.15;0.15;;;;;;;29.05;50.32;100944.78;5055966;28;20411;-63
2022/07/03 08:25:26;;;;;;;0.15;0.15;;;;;;;29.01;49.07;100950.53;5065367;28;20063;-63
2022/07/03 08:27:54;;;;;;;0.35;0.17;;;;;;;29.37;47.99;100944.69;5052553;28;20048;-63
2022/07/03 08:30:20;;;;;;;0.10;0.10;;;;;;;29.63;47.78;100950.47;5049933;28;20020;-63
2022/07/03 08:32:53;;;;;;;0.22;0.22;;;;;;;29.82;46.33;100942.72;5060490;28;20048;-63
2022/07/03 08:35:21;;;;;;;0.17;0.15;;;;;;;30.05;46.72;100945.38;5054175;28;20036;-63
2022/07/03 08:37:50;;;;;;;0.20;0.15;;;;;;;30.14;45.78;100945.25;5066536;28;20040;-62
2022/07/03 08:40:20;;;;;;;0.45;0.20;;;;;;;30.37;43.67;100946.41;5072513;28;20134;-63
2022/07/03 08:43:00;;;;;;;0.00;0.00;;;;;;;30.23;43.80;100958.28;5068573;28;20024;-63
2022/07/03 08:45:35;;;;;;;0.10;0.10;;;;;;;30.40;45.11;100950.97;5070820;28;20064;-63
2022/07/03 08:48:02;;;;;;;0.10;0.10;;;;;;;30.57;44.69;100959.53;5059524;28;20040;-63
2022/07/03 08:50:42;;;;;;;0.00;0.00;;;;;;;30.79;45.32;100951.50;5065107;28;20395;-63
2022/07/03 08:53:10;;;;;;;0.10;0.10;;;;;;;30.95;44.93;100956.53;5072345;28;20526;-63
2022/07/03 08:55:38;;;;;;;0.10;0.10;;;;;;;31.09;44.31;100941.75;5061487;28;20074;-63
2022/07/03 08:58:10;;;;;;;0.20;0.10;;;;;;;31.20;43.88;100938.34;5066977;28;20396;-63
2022/07/03 09:00:37;;;;;;;0.00;0.00;;;;;;;31.28;44.46;100942.97;5068899;28;20040;-63
2022/07/03 09:03:08;;;;;;;0.00;0.00;;;;;;;31.40;44.65;100947.44;5072159;28;20025;-63
2022/07/03 09:05:37;;;;;;;0.20;0.13;;;;;;;31.52;43.76;100935.16;5060561;28;20029;-63
2022/07/03 09:08:11;;;;;;;0.00;0.00;;;;;;;31.59;42.67;100931.91;5069075;28;20028;-63
2022/07/03 09:10:39;;;;;;;0.20;0.20;;;;;;;31.60;42.78;100944.59;5066418;28;20033;-63
2022/07/03 09:13:08;;;;;;;0.17;0.17;;;;;;;31.85;43.00;100948.59;5071198;28;20436;-63
2022/07/03 09:15:37;;;;;;;0.05;0.05;;;;;;;31.82;43.25;100938.47;5069715;28;20092;-62
2022/07/03 09:18:08;;;;;;;0.10;0.10;;;;;;;31.87;41.91;100944.06;5066913;28;20036;-63
2022/07/03 09:20:41;;;;;;;0.00;0.00;;;;;;;31.70;42.54;100950.75;5071337;28;20150;-63
2022/07/03 09:23:11;;;;;;;0.00;0.00;;;;;;;31.36;41.79;100946.84;5070341;28;20039;-63
2022/07/03 09:25:58;;;;;;;0.55;0.28;;;;;;;31.64;43.20;100947.16;5059715;28;20459;-63
2022/07/03 09:28:55;;;;;;;0.10;0.10;;;;;;;31.85;42.90;100951.41;5070584;28;20077;-63
2022/07/03 09:31:31;;;;;;;0.00;0.00;;;;;;;32.08;43.25;100963.50;5038413;28;20040;-63
2022/07/03 09:34:07;;;;;;;0.25;0.25;;;;;;;32.21;43.16;100952.72;5059938;28;20041;-63
2022/07/03 09:36:51;;;;;;;0.10;0.10;;;;;;;31.92;43.10;100951.00;5070734;28;20047;-63
2022/07/03 09:39:39;;;;;;;0.10;0.10;;;;;;;31.74;43.59;100952.09;5064696;28;20032;-63
2022/07/03 09:42:11;;;;;;;0.00;0.00;;;;;;;31.68;44.05;100945.69;5063473;28;20021;-63
2022/07/03 09:44:47;;;;;;;1.17;0.88;;;;;;;31.54;44.12;100945.78;5044730;28;20029;-63
2022/07/03 09:47:24;;;;;;;0.00;0.00;;;;;;;31.40;43.01;100944.66;5057665;28;20147;-63
2022/07/03 09:49:59;;;;;;;0.20;0.20;;;;;;;31.49;41.90;100944.50;5064619;28;20546;-63
2022/07/03 09:52:41;;;;;;;4.10;0.52;;;;;;;31.18;44.37;100944.41;5071740;28;20036;-63
2022/07/03 09:55:10;;;;;;;0.20;0.15;;;;;;;31.36;44.06;100935.72;5063994;28;20083;-63
2022/07/03 09:57:38;;;;;;;0.10;0.10;;;;;;;31.71;42.98;100936.34;5060339;28;20060;-63
2022/07/03 10:00:20;;;;;;;0.03;0.03;;;;;;;32.08;40.50;100938.41;5061688;28;20021;-63
2022/07/03 10:02:59;;;;;;;0.00;0.00;;;;;;;32.08;41.39;100947.53;5067288;28;20030;-63
2022/07/03 10:05:30;;;;;;;1.90;0.30;;;;;;;32.06;42.39;100938.91;5057802;28;20463;-63
2022/07/03 10:08:10;;;;;;;0.00;0.00;;;;;;;32.10;41.59;100945.03;5064319;28;20042;-62
2022/07/03 10:10:41;;;;;;;0.03;0.03;;;;;;;32.16;40.63;100936.69;5069422;28;20150;-63
2022/07/03 10:13:09;;;;;;;0.10;0.08;;;;;;;32.30;41.18;100936.56;5066829;28;20452;-63
2022/07/03 10:15:39;;;;;;;0.25;0.17;;;;;;;32.47;40.77;100934.66;5056807;28;20453;-63
2022/07/03 10:18:12;;;;;;;0.00;0.00;;;;;;;32.48;40.69;100936.16;5062363;28;20412;-63
2022/07/03 10:20:56;;;;;;;0.10;0.00;;;;;;;32.37;40.26;100936.06;5064596;28;20043;-63
2022/07/03 10:23:22;;;;;;;0.10;0.10;;;;;;;32.31;41.53;100952.00;5066456;28;20025;-63
2022/07/03 10:25:51;;;;;;;0.05;0.05;;;;;;;31.67;40.63;100938.56;5070079;28;20042;-63
2022/07/03 10:28:18;;;;;;;0.10;0.10;;;;;;;31.95;41.83;100934.03;5064423;28;20036;-63
2022/07/03 10:30:51;;;;;;;0.00;0.00;;;;;;;32.12;42.57;100938.94;5067306;28;20040;-63
2022/07/03 10:33:23;;;;;;;0.10;0.10;;;;;;;32.00;40.81;100935.31;5064473;28;20062;-63
2022/07/03 10:35:52;;;;;;;0.32;0.13;;;;;;;31.96;41.82;100938.34;5070186;28;20084;-63
2022/07/03 10:38:37;;;;;;;0.45;0.05;;;;;;;31.90;43.46;100940.28;5068776;28;20034;-63
2022/07/03 10:46:41;;;;;;;0.00;0.00;;;;;;;31.80;43.93;100946.56;5069286;28;20038;-63
2022/07/03 10:49:10;;;;;;;0.00;0.00;;;;;;;31.63;43.43;100949.19;5068621;28;20130;-63
2022/07/03 10:51:52;;;;;;;0.00;0.00;;;;;;;31.39;44.77;100939.59;5067905;28;20029;-63
2022/07/03 10:54:19;;;;;;;0.00;0.00;;;;;;;31.38;44.53;100940.84;5062204;28;20035;-63
2022/07/03 10:57:06;;;;;;;0.00;0.00;;;;;;;31.46;43.29;100939.91;5062082;28;20383;-63
2022/07/03 10:59:42;;;;;;;0.00;0.00;;;;;;;31.98;41.32;100945.47;5063160;28;20064;-63
2022/07/03 11:02:37;;;;;;;0.10;0.10;;;;;;;32.38;41.67;100948.00;5068689;28;20033;-63
2022/07/03 11:05:13;;;;;;;0.13;0.13;;;;;;;32.82;41.29;100951.03;5050429;28;20037;-63
2022/07/03 11:07:51;;;;;;;0.00;0.00;;;;;;;33.15;40.23;100950.41;5056336;28;20499;-63
2022/07/03 11:10:40;;;;;;;0.00;0.00;;;;;;;33.38;38.56;100938.78;5056295;28;20223;-63
2022/07/03 11:13:11;;;;;;;0.08;0.08;;;;;;;33.63;38.63;100939.84;5069798;28;20028;-62
2022/07/03 11:15:46;;;;;;;0.10;0.10;;;;;;;33.65;38.37;100940.88;5059179;28;20081;-62
2022/07/03 11:18:20;;;;;;;0.10;0.10;;;;;;;33.34;38.70;100940.31;5065848;28;20029;-63
2022/07/03 11:20:51;;;;;;;0.00;0.00;;;;;;;33.68;37.57;100947.50;5050809;28;20031;-63
2022/07/03 11:23:26;;;;;;;0.00;0.00;;;;;;;34.07;36.75;100950.31;5060864;28;20111;-63
2022/07/03 11:26:12;;;;;;;0.00;0.00;;;;;;;34.04;35.63;100943.69;5054179;28;20033;-63
2022/07/03 11:28:38;;;;;;;0.00;0.00;;;;;;;34.25;35.94;100938.56;5063560;28;20059;-62
2022/07/03 11:31:18;;;;;;;0.00;0.00;;;;;;;34.34;36.87;100939.03;5069302;28;20068;-63
2022/07/03 11:33:57;;;;;;;0.00;0.00;;;;;;;34.20;36.87;100937.31;5061419;28;20094;-63
2022/07/03 11:36:34;;;;;;;0.00;0.00;;;;;;;34.39;36.44;100935.47;5056235;28;20028;-63
2022/07/03 11:39:05;;;;;;;0.00;0.00;;;;;;;34.11;33.41;100931.97;5055965;28;20042;-63
2022/07/03 11:41:30;;;;;;;0.13;0.10;;;;;;;34.30;35.23;100927.34;5063046;28;20036;-63
2022/07/03 11:44:06;;;;;;;0.10;0.10;;;;;;;34.39;36.63;100923.53;5067636;28;20037;-63
2022/07/03 11:46:40;;;;;;;0.00;0.00;;;;;;;34.49;36.56;100930.41;5054330;28;20025;-63
2022/07/03 11:49:10;;;;;;;0.17;0.17;;;;;;;34.60;36.42;100921.94;5058334;28;20396;-63
2022/07/03 11:51:55;;;;;;;0.00;0.00;;;;;;;34.59;36.40;100925.28;5067871;28;20445;-64
2022/07/03 11:54:25;;;;;;;0.10;0.10;;;;;;;34.82;35.69;100921.88;5062851;28;20040;-63
2022/07/03 11:56:56;;;;;;;0.00;0.00;;;;;;;34.03;35.86;100916.97;5068820;28;20553;-63
2022/07/03 11:59:25;;;;;;;0.00;0.00;;;;;;;34.23;35.35;100924.31;5068964;28;20103;-63
2022/07/03 12:02:01;;;;;;;0.17;0.17;;;;;;;34.46;34.84;100931.38;5046134;28;20402;-63